U.S. Alerts
El Dorado Weather Logo
Placerville, Ca. Station Historical Data
[ Providing Data Since 6/22/2006 ]spacer

 
Daily Summary for June 23, 2024 Units:  English    Metric   Both
Daily Weekly Monthly Yearly Custom
  Current: High: Low: Average:
Temperature: 72 °F 74.7 °F 72 °F 73 °F
Dew Point: 53 °F 54.3 °F 52.9 °F 53.4 °F
Humidity: 51.1% 51.1% 49% 50%
Wind Speed: 0mph 1mph 0mph 0.1mph
Wind Gust: 0mph 3mph - -
WindCalm - - NE
Pressure: 29.95 in 29.96 in 29.95 in -
Precipitation: 0.00 in      
Historical Graphs
 
 
Tabular Data for June 23, 2024
Time Temperature Dew Point Pressure Wind Wind Speed Wind Gust Humidity Rainfall Rate (Hourly) solar
00:04 74.7 °F 54.3 °F 29.96 in Calm     49% 0.00 in 0 W/m2
00:09 74.5 °F 54.1 °F 29.96 in Calm     49% 0.00 in 0 W/m2
00:14 74.3 °F 53.9 °F 29.96 in Calm     49% 0.00 in 0 W/m2
00:19 74.1 °F 53.7 °F 29.96 in Calm     49% 0.00 in 0 W/m2
00:24 73.9 °F 53.6 °F 29.96 in Calm     49.1% 0.00 in 0 W/m2
00:29 73.8 °F 54 °F 29.96 in Calm     50% 0.00 in 0 W/m2
00:34 73.7 °F 53.9 °F 29.96 in Calm     50% 0.00 in 0 W/m2
00:39 73.5 °F 53.7 °F 29.96 in Calm     50% 0.00 in 0 W/m2
00:44 73.4 °F 53.6 °F 29.96 in Calm     50% 0.00 in 0 W/m2
00:48 73.3 °F 53.5 °F 29.96 in Calm     50% 0.00 in 0 W/m2
00:54 73.1 °F 53.4 °F 29.96 in Calm     50% 0.00 in 0 W/m2
00:59 73 °F 53.4 °F 29.96 in Calm     50.1% 0.00 in 0 W/m2
01:04 72.9 °F 53.2 °F 29.96 in Calm     50% 0.00 in 0 W/m2
01:09 72.8 °F 53.4 °F 29.96 in Calm     50.7% 0.00 in 0 W/m2
01:14 72.6 °F 53.4 °F 29.96 in Calm     51% 0.00 in 0 W/m2
01:19 72.5 °F 53.3 °F 29.96 in Calm     51% 0.00 in 0 W/m2
01:24 72.4 °F 53.3 °F 29.96 in Calm     51% 0.00 in 0 W/m2
01:29 72.3 °F 53.2 °F 29.96 in Calm     51% 0.00 in 0 W/m2
01:34 72.3 °F 53.2 °F 29.96 in Calm     51% 0.00 in 0 W/m2
01:39 72.2 °F 53.1 °F 29.96 in Calm     51% 0.00 in 0 W/m2
01:44 72.2 °F 53.1 °F 29.96 in NE 0.9 mph 0.7 mph 51% 0.00 in 0 W/m2
01:49 72.1 °F 53 °F 29.96 in NE 1 mph 3 mph 51% 0.00 in 0 W/m2
01:54 72.1 °F 53 °F 29.96 in Calm   3 mph 51% 0.00 in 0 W/m2
01:59 72 °F 52.9 °F 29.96 in Calm     51% 0.00 in 0 W/m2
02:04 72 °F 52.9 °F 29.96 in Calm     51% 0.00 in 0 W/m2
02:09 72 °F 53 °F 29.95 in Calm     51.1% 0.00 in 0 W/m2
El Dorado Weather
Compliments of Weather Underground - 2 mb






Contact Us Contact Us Thumbnail | Mobile Mobile Phone Thumbnail
Private Policy | Terms & Conds | Consent Preferences | Cookie Policy
Never base any life decisions on weather information from this site or anywhere over the Internet.
Site is dedicated to our Lord & Savior Jesus Christ | Random Quotes of Jesus

Copyright © 2024 El Dorado Weather, Inc. | Site Designed By:  Webmaster Danny